sensor_id;sensor_type;location;lat;lon;timestamp;P1;durP1;ratioP1;P2;durP2;ratioP2
8293;SDS011;4185;41.506;24.938;2022-08-03T00:02:06;2.90;;;2.70;;
8293;SDS011;4185;41.506;24.938;2022-08-03T00:04:33;3.30;;;3.00;;
8293;SDS011;4185;41.506;24.938;2022-08-03T00:07:00;3.07;;;2.87;;
8293;SDS011;4185;41.506;24.938;2022-08-03T00:09:27;2.70;;;2.50;;
8293;SDS011;4185;41.506;24.938;2022-08-03T00:11:55;2.93;;;2.70;;
8293;SDS011;4185;41.506;24.938;2022-08-03T00:14:22;3.03;;;2.83;;
8293;SDS011;4185;41.506;24.938;2022-08-03T00:16:50;3.00;;;2.80;;
8293;SDS011;4185;41.506;24.938;2022-08-03T00:19:16;2.90;;;2.70;;
8293;SDS011;4185;41.506;24.938;2022-08-03T00:21:43;3.60;;;2.90;;
8293;SDS011;4185;41.506;24.938;2022-08-03T00:24:10;3.13;;;2.87;;
8293;SDS011;4185;41.506;24.938;2022-08-03T00:26:37;2.97;;;2.77;;
8293;SDS011;4185;41.506;24.938;2022-08-03T00:29:04;7.20;;;4.70;;
8293;SDS011;4185;41.506;24.938;2022-08-03T00:31:31;5.73;;;4.17;;
8293;SDS011;4185;41.506;24.938;2022-08-03T00:33:59;8.63;;;4.93;;
8293;SDS011;4185;41.506;24.938;2022-08-03T00:36:26;4.43;;;4.03;;
8293;SDS011;4185;41.506;24.938;2022-08-03T00:38:53;3.83;;;3.00;;
8293;SDS011;4185;41.506;24.938;2022-08-03T00:41:19;3.40;;;3.10;;
8293;SDS011;4185;41.506;24.938;2022-08-03T00:43:46;5.40;;;3.43;;
8293;SDS011;4185;41.506;24.938;2022-08-03T00:46:13;4.93;;;3.23;;
8293;SDS011;4185;41.506;24.938;2022-08-03T00:48:40;3.63;;;3.33;;
8293;SDS011;4185;41.506;24.938;2022-08-03T00:51:08;3.73;;;3.37;;
8293;SDS011;4185;41.506;24.938;2022-08-03T00:53:35;3.33;;;3.03;;
8293;SDS011;4185;41.506;24.938;2022-08-03T00:56:03;3.53;;;3.23;;
8293;SDS011;4185;41.506;24.938;2022-08-03T00:58:30;3.27;;;3.07;;
8293;SDS011;4185;41.506;24.938;2022-08-03T01:00:57;4.67;;;3.00;;
8293;SDS011;4185;41.506;24.938;2022-08-03T01:03:24;3.00;;;2.80;;
8293;SDS011;4185;41.506;24.938;2022-08-03T01:05:51;3.03;;;2.70;;
8293;SDS011;4185;41.506;24.938;2022-08-03T01:08:27;3.80;;;2.90;;
8293;SDS011;4185;41.506;24.938;2022-08-03T01:11:01;3.70;;;2.77;;
8293;SDS011;4185;41.506;24.938;2022-08-03T01:13:37;3.43;;;2.90;;
8293;SDS011;4185;41.506;24.938;2022-08-03T01:16:11;3.50;;;3.13;;
8293;SDS011;4185;41.506;24.938;2022-08-03T01:18:54;4.97;;;3.20;;
8293;SDS011;4185;41.506;24.938;2022-08-03T01:21:26;3.30;;;3.00;;
8293;SDS011;4185;41.506;24.938;2022-08-03T01:24:05;3.03;;;2.80;;
8293;SDS011;4185;41.506;24.938;2022-08-03T01:27:02;3.40;;;3.10;;
8293;SDS011;4185;41.506;24.938;2022-08-03T01:29:49;3.27;;;3.00;;
8293;SDS011;4185;41.506;24.938;2022-08-03T01:32:24;4.60;;;3.00;;
8293;SDS011;4185;41.506;24.938;2022-08-03T01:34:57;3.30;;;3.00;;
8293;SDS011;4185;41.506;24.938;2022-08-03T01:37:30;3.13;;;2.87;;
8293;SDS011;4185;41.506;24.938;2022-08-03T01:40:00;3.53;;;3.23;;
8293;SDS011;4185;41.506;24.938;2022-08-03T01:42:29;3.53;;;2.93;;
8293;SDS011;4185;41.506;24.938;2022-08-03T01:44:59;3.10;;;2.80;;
8293;SDS011;4185;41.506;24.938;2022-08-03T01:47:27;3.97;;;3.57;;
8293;SDS011;4185;41.506;24.938;2022-08-03T01:49:55;3.30;;;3.00;;
8293;SDS011;4185;41.506;24.938;2022-08-03T01:52:24;3.50;;;3.20;;
8293;SDS011;4185;41.506;24.938;2022-08-03T01:54:52;4.77;;;3.37;;
8293;SDS011;4185;41.506;24.938;2022-08-03T01:57:20;3.40;;;3.10;;
8293;SDS011;4185;41.506;24.938;2022-08-03T01:59:49;3.87;;;3.40;;
8293;SDS011;4185;41.506;24.938;2022-08-03T02:02:18;3.27;;;3.07;;
8293;SDS011;4185;41.506;24.938;2022-08-03T02:04:46;3.23;;;2.93;;
8293;SDS011;4185;41.506;24.938;2022-08-03T02:07:15;3.00;;;2.80;;
8293;SDS011;4185;41.506;24.938;2022-08-03T02:09:43;3.43;;;2.90;;
8293;SDS011;4185;41.506;24.938;2022-08-03T02:12:14;3.40;;;3.20;;
8293;SDS011;4185;41.506;24.938;2022-08-03T02:14:42;3.53;;;3.23;;
8293;SDS011;4185;41.506;24.938;2022-08-03T02:17:10;4.10;;;2.90;;
8293;SDS011;4185;41.506;24.938;2022-08-03T02:19:41;4.43;;;3.13;;
8293;SDS011;4185;41.506;24.938;2022-08-03T02:22:09;3.57;;;3.27;;
8293;SDS011;4185;41.506;24.938;2022-08-03T02:24:37;3.97;;;3.23;;
8293;SDS011;4185;41.506;24.938;2022-08-03T02:27:05;3.60;;;3.30;;
8293;SDS011;4185;41.506;24.938;2022-08-03T02:29:36;3.83;;;3.53;;
8293;SDS011;4185;41.506;24.938;2022-08-03T02:32:09;3.30;;;3.00;;
8293;SDS011;4185;41.506;24.938;2022-08-03T02:34:38;3.30;;;3.00;;
8293;SDS011;4185;41.506;24.938;2022-08-03T02:37:09;3.57;;;3.23;;
8293;SDS011;4185;41.506;24.938;2022-08-03T02:39:37;3.30;;;3.00;;
8293;SDS011;4185;41.506;24.938;2022-08-03T02:42:07;3.53;;;3.23;;
8293;SDS011;4185;41.506;24.938;2022-08-03T02:44:35;3.80;;;3.50;;
8293;SDS011;4185;41.506;24.938;2022-08-03T02:47:05;3.27;;;2.97;;
8293;SDS011;4185;41.506;24.938;2022-08-03T02:49:35;3.33;;;3.03;;
8293;SDS011;4185;41.506;24.938;2022-08-03T02:52:04;3.50;;;3.20;;
8293;SDS011;4185;41.506;24.938;2022-08-03T02:54:35;3.40;;;3.10;;
8293;SDS011;4185;41.506;24.938;2022-08-03T02:57:04;3.50;;;3.20;;
8293;SDS011;4185;41.506;24.938;2022-08-03T02:59:33;5.40;;;3.03;;
8293;SDS011;4185;41.506;24.938;2022-08-03T03:02:02;3.93;;;3.10;;
8293;SDS011;4185;41.506;24.938;2022-08-03T03:04:29;3.60;;;3.17;;
8293;SDS011;4185;41.506;24.938;2022-08-03T03:06:56;3.40;;;3.10;;
8293;SDS011;4185;41.506;24.938;2022-08-03T03:09:26;3.23;;;2.93;;
8293;SDS011;4185;41.506;24.938;2022-08-03T03:11:53;3.40;;;3.10;;
8293;SDS011;4185;41.506;24.938;2022-08-03T03:14:22;3.70;;;3.40;;
8293;SDS011;4185;41.506;24.938;2022-08-03T03:16:49;3.53;;;2.93;;
8293;SDS011;4185;41.506;24.938;2022-08-03T03:19:17;4.67;;;3.20;;
8293;SDS011;4185;41.506;24.938;2022-08-03T03:21:46;3.33;;;3.00;;
8293;SDS011;4185;41.506;24.938;2022-08-03T03:24:13;3.50;;;3.20;;
8293;SDS011;4185;41.506;24.938;2022-08-03T03:26:42;3.70;;;3.40;;
8293;SDS011;4185;41.506;24.938;2022-08-03T03:29:10;3.40;;;3.10;;
8293;SDS011;4185;41.506;24.938;2022-08-03T03:31:37;3.40;;;3.10;;
8293;SDS011;4185;41.506;24.938;2022-08-03T03:34:05;3.27;;;3.07;;
8293;SDS011;4185;41.506;24.938;2022-08-03T03:36:32;3.80;;;3.40;;
8293;SDS011;4185;41.506;24.938;2022-08-03T03:38:59;3.73;;;3.13;;
8293;SDS011;4185;41.506;24.938;2022-08-03T03:41:25;3.53;;;3.23;;
8293;SDS011;4185;41.506;24.938;2022-08-03T03:43:54;3.60;;;3.30;;
8293;SDS011;4185;41.506;24.938;2022-08-03T03:46:21;3.50;;;3.20;;
8293;SDS011;4185;41.506;24.938;2022-08-03T03:48:48;3.10;;;2.80;;
8293;SDS011;4185;41.506;24.938;2022-08-03T03:51:15;3.50;;;3.20;;
8293;SDS011;4185;41.506;24.938;2022-08-03T03:53:52;4.80;;;3.87;;
8293;SDS011;4185;41.506;24.938;2022-08-03T03:56:21;5.00;;;4.20;;
8293;SDS011;4185;41.506;24.938;2022-08-03T03:58:47;6.77;;;4.40;;
8293;SDS011;4185;41.506;24.938;2022-08-03T04:01:16;6.23;;;4.33;;
8293;SDS011;4185;41.506;24.938;2022-08-03T04:03:43;5.03;;;4.53;;
8293;SDS011;4185;41.506;24.938;2022-08-03T04:06:10;4.17;;;3.83;;
8293;SDS011;4185;41.506;24.938;2022-08-03T04:08:55;4.67;;;3.80;;
8293;SDS011;4185;41.506;24.938;2022-08-03T04:11:40;5.53;;;3.90;;
8293;SDS011;4185;41.506;24.938;2022-08-03T04:14:11;4.40;;;3.87;;
8293;SDS011;4185;41.506;24.938;2022-08-03T04:16:44;4.70;;;4.07;;
8293;SDS011;4185;41.506;24.938;2022-08-03T04:19:14;4.27;;;3.87;;
8293;SDS011;4185;41.506;24.938;2022-08-03T04:21:47;4.20;;;3.80;;
8293;SDS011;4185;41.506;24.938;2022-08-03T04:24:16;4.47;;;4.07;;
8293;SDS011;4185;41.506;24.938;2022-08-03T04:26:45;6.30;;;5.00;;
8293;SDS011;4185;41.506;24.938;2022-08-03T04:29:14;7.23;;;4.10;;
8293;SDS011;4185;41.506;24.938;2022-08-03T04:31:43;4.20;;;3.80;;
8293;SDS011;4185;41.506;24.938;2022-08-03T04:34:11;3.83;;;3.43;;
8293;SDS011;4185;41.506;24.938;2022-08-03T04:36:43;3.60;;;3.30;;
8293;SDS011;4185;41.506;24.938;2022-08-03T04:39:15;4.00;;;3.70;;
8293;SDS011;4185;41.506;24.938;2022-08-03T04:41:49;3.83;;;3.50;;
8293;SDS011;4185;41.506;24.938;2022-08-03T04:44:20;3.97;;;3.67;;
8293;SDS011;4185;41.506;24.938;2022-08-03T04:46:50;4.53;;;3.77;;
8293;SDS011;4185;41.506;24.938;2022-08-03T04:49:18;4.23;;;3.63;;
8293;SDS011;4185;41.506;24.938;2022-08-03T04:51:46;6.33;;;3.40;;
8293;SDS011;4185;41.506;24.938;2022-08-03T04:54:14;3.87;;;3.57;;
8293;SDS011;4185;41.506;24.938;2022-08-03T04:56:41;3.70;;;3.40;;
8293;SDS011;4185;41.506;24.938;2022-08-03T04:59:09;4.17;;;3.77;;
8293;SDS011;4185;41.506;24.938;2022-08-03T05:01:36;3.80;;;3.50;;
8293;SDS011;4185;41.506;24.938;2022-08-03T05:04:05;4.07;;;3.67;;
8293;SDS011;4185;41.506;24.938;2022-08-03T05:06:32;4.47;;;4.00;;
8293;SDS011;4185;41.506;24.938;2022-08-03T05:08:59;4.30;;;3.90;;
8293;SDS011;4185;41.506;24.938;2022-08-03T05:11:26;4.10;;;3.70;;
8293;SDS011;4185;41.506;24.938;2022-08-03T05:13:53;4.30;;;3.90;;
8293;SDS011;4185;41.506;24.938;2022-08-03T05:16:20;3.83;;;3.50;;
8293;SDS011;4185;41.506;24.938;2022-08-03T05:18:46;3.70;;;3.40;;
8293;SDS011;4185;41.506;24.938;2022-08-03T05:21:14;6.60;;;3.73;;
8293;SDS011;4185;41.506;24.938;2022-08-03T05:23:42;3.73;;;3.43;;
8293;SDS011;4185;41.506;24.938;2022-08-03T05:26:09;4.43;;;3.97;;
8293;SDS011;4185;41.506;24.938;2022-08-03T05:28:37;4.07;;;3.77;;
8293;SDS011;4185;41.506;24.938;2022-08-03T05:31:03;4.00;;;3.57;;
8293;SDS011;4185;41.506;24.938;2022-08-03T05:33:30;4.27;;;3.87;;
8293;SDS011;4185;41.506;24.938;2022-08-03T05:35:57;4.50;;;3.87;;
8293;SDS011;4185;41.506;24.938;2022-08-03T05:38:26;4.40;;;4.00;;
8293;SDS011;4185;41.506;24.938;2022-08-03T05:40:53;4.30;;;3.90;;
8293;SDS011;4185;41.506;24.938;2022-08-03T05:43:20;4.47;;;4.07;;
8293;SDS011;4185;41.506;24.938;2022-08-03T05:45:47;4.67;;;4.27;;
8293;SDS011;4185;41.506;24.938;2022-08-03T05:48:13;4.10;;;3.77;;
8293;SDS011;4185;41.506;24.938;2022-08-03T05:50:40;4.17;;;3.87;;
8293;SDS011;4185;41.506;24.938;2022-08-03T05:53:07;4.40;;;3.90;;
8293;SDS011;4185;41.506;24.938;2022-08-03T05:55:35;5.60;;;3.93;;
8293;SDS011;4185;41.506;24.938;2022-08-03T05:58:02;4.17;;;3.77;;
8293;SDS011;4185;41.506;24.938;2022-08-03T06:00:29;4.23;;;3.93;;
8293;SDS011;4185;41.506;24.938;2022-08-03T06:02:56;4.30;;;3.90;;
8293;SDS011;4185;41.506;24.938;2022-08-03T06:05:23;3.93;;;3.50;;
8293;SDS011;4185;41.506;24.938;2022-08-03T06:07:52;3.90;;;3.60;;
8293;SDS011;4185;41.506;24.938;2022-08-03T06:10:19;4.03;;;3.47;;
8293;SDS011;4185;41.506;24.938;2022-08-03T06:12:47;4.90;;;3.70;;
8293;SDS011;4185;41.506;24.938;2022-08-03T06:15:15;3.77;;;3.47;;
8293;SDS011;4185;41.506;24.938;2022-08-03T06:17:45;4.50;;;4.10;;
8293;SDS011;4185;41.506;24.938;2022-08-03T06:20:14;3.87;;;3.57;;
8293;SDS011;4185;41.506;24.938;2022-08-03T06:22:43;4.20;;;3.90;;
8293;SDS011;4185;41.506;24.938;2022-08-03T06:25:10;3.33;;;3.13;;
8293;SDS011;4185;41.506;24.938;2022-08-03T06:27:36;3.80;;;3.40;;
8293;SDS011;4185;41.506;24.938;2022-08-03T06:30:06;4.03;;;3.73;;
8293;SDS011;4185;41.506;24.938;2022-08-03T06:32:34;4.10;;;3.80;;
8293;SDS011;4185;41.506;24.938;2022-08-03T06:35:01;4.13;;;3.73;;
8293;SDS011;4185;41.506;24.938;2022-08-03T06:37:28;4.30;;;3.90;;
8293;SDS011;4185;41.506;24.938;2022-08-03T06:39:55;4.43;;;3.70;;
8293;SDS011;4185;41.506;24.938;2022-08-03T06:42:22;3.77;;;3.37;;
8293;SDS011;4185;41.506;24.938;2022-08-03T06:44:49;4.07;;;3.77;;
8293;SDS011;4185;41.506;24.938;2022-08-03T06:47:17;4.40;;;4.00;;
8293;SDS011;4185;41.506;24.938;2022-08-03T06:49:44;4.03;;;3.70;;
8293;SDS011;4185;41.506;24.938;2022-08-03T06:52:11;4.50;;;4.10;;
8293;SDS011;4185;41.506;24.938;2022-08-03T06:54:38;5.90;;;3.63;;
8293;SDS011;4185;41.506;24.938;2022-08-03T06:57:04;5.83;;;4.27;;
8293;SDS011;4185;41.506;24.938;2022-08-03T06:59:32;11.03;;;5.13;;
8293;SDS011;4185;41.506;24.938;2022-08-03T07:01:59;6.23;;;4.70;;
8293;SDS011;4185;41.506;24.938;2022-08-03T07:04:27;4.80;;;4.40;;
8293;SDS011;4185;41.506;24.938;2022-08-03T07:06:54;4.63;;;4.23;;
8293;SDS011;4185;41.506;24.938;2022-08-03T07:09:21;4.27;;;3.87;;
8293;SDS011;4185;41.506;24.938;2022-08-03T07:11:47;5.10;;;4.67;;
8293;SDS011;4185;41.506;24.938;2022-08-03T07:14:14;4.97;;;4.37;;
8293;SDS011;4185;41.506;24.938;2022-08-03T07:16:41;5.30;;;4.73;;
8293;SDS011;4185;41.506;24.938;2022-08-03T07:19:08;5.17;;;4.67;;
8293;SDS011;4185;41.506;24.938;2022-08-03T07:21:36;5.07;;;4.57;;
8293;SDS011;4185;41.506;24.938;2022-08-03T07:24:03;4.83;;;4.43;;
8293;SDS011;4185;41.506;24.938;2022-08-03T07:26:31;4.87;;;4.40;;
8293;SDS011;4185;41.506;24.938;2022-08-03T07:28:59;5.43;;;4.90;;
8293;SDS011;4185;41.506;24.938;2022-08-03T07:31:26;4.63;;;4.23;;
8293;SDS011;4185;41.506;24.938;2022-08-03T07:33:52;5.17;;;4.67;;
8293;SDS011;4185;41.506;24.938;2022-08-03T07:36:19;4.47;;;4.07;;
8293;SDS011;4185;41.506;24.938;2022-08-03T07:38:47;4.70;;;4.20;;
8293;SDS011;4185;41.506;24.938;2022-08-03T07:41:14;5.33;;;4.23;;
8293;SDS011;4185;41.506;24.938;2022-08-03T07:43:41;6.67;;;4.30;;
8293;SDS011;4185;41.506;24.938;2022-08-03T07:46:08;4.67;;;4.20;;
8293;SDS011;4185;41.506;24.938;2022-08-03T07:48:35;4.87;;;4.37;;
8293;SDS011;4185;41.506;24.938;2022-08-03T07:51:02;5.47;;;4.20;;
8293;SDS011;4185;41.506;24.938;2022-08-03T07:53:30;4.60;;;4.20;;
8293;SDS011;4185;41.506;24.938;2022-08-03T07:55:58;4.83;;;3.70;;
8293;SDS011;4185;41.506;24.938;2022-08-03T07:58:25;6.00;;;4.47;;
8293;SDS011;4185;41.506;24.938;2022-08-03T08:00:51;7.00;;;4.20;;
8293;SDS011;4185;41.506;24.938;2022-08-03T08:03:18;4.97;;;4.47;;
8293;SDS011;4185;41.506;24.938;2022-08-03T08:05:46;6.80;;;4.17;;
8293;SDS011;4185;41.506;24.938;2022-08-03T08:08:12;4.17;;;3.73;;
8293;SDS011;4185;41.506;24.938;2022-08-03T08:10:39;5.93;;;4.07;;
8293;SDS011;4185;41.506;24.938;2022-08-03T08:13:08;4.67;;;3.97;;
8293;SDS011;4185;41.506;24.938;2022-08-03T08:15:35;4.77;;;4.10;;
8293;SDS011;4185;41.506;24.938;2022-08-03T08:18:02;6.80;;;4.30;;
8293;SDS011;4185;41.506;24.938;2022-08-03T08:20:29;4.30;;;3.90;;
8293;SDS011;4185;41.506;24.938;2022-08-03T08:22:58;4.30;;;3.87;;
8293;SDS011;4185;41.506;24.938;2022-08-03T08:25:26;4.70;;;4.30;;
8293;SDS011;4185;41.506;24.938;2022-08-03T08:27:53;5.00;;;4.50;;
8293;SDS011;4185;41.506;24.938;2022-08-03T08:30:21;4.10;;;3.70;;
8293;SDS011;4185;41.506;24.938;2022-08-03T08:32:48;5.10;;;4.63;;
8293;SDS011;4185;41.506;24.938;2022-08-03T08:35:16;4.88;;;4.38;;
8293;SDS011;4185;41.506;24.938;2022-08-03T08:37:43;4.60;;;4.07;;
8293;SDS011;4185;41.506;24.938;2022-08-03T08:40:10;5.07;;;4.68;;
8293;SDS011;4185;41.506;24.938;2022-08-03T08:42:38;5.07;;;4.68;;
8293;SDS011;4185;41.506;24.938;2022-08-03T08:45:07;5.75;;;4.93;;
8293;SDS011;4185;41.506;24.938;2022-08-03T08:47:37;5.53;;;4.95;;
8293;SDS011;4185;41.506;24.938;2022-08-03T08:50:06;5.40;;;4.90;;
8293;SDS011;4185;41.506;24.938;2022-08-03T08:52:35;4.93;;;4.53;;
8293;SDS011;4185;41.506;24.938;2022-08-03T08:55:06;5.07;;;4.68;;
8293;SDS011;4185;41.506;24.938;2022-08-03T08:57:35;4.80;;;4.40;;
8293;SDS011;4185;41.506;24.938;2022-08-03T09:00:04;4.85;;;4.20;;
8293;SDS011;4185;41.506;24.938;2022-08-03T09:02:33;5.18;;;4.70;;
8293;SDS011;4185;41.506;24.938;2022-08-03T09:05:01;4.65;;;4.30;;
8293;SDS011;4185;41.506;24.938;2022-08-03T09:07:29;5.53;;;5.03;;
8293;SDS011;4185;41.506;24.938;2022-08-03T09:09:55;5.55;;;5.05;;
8293;SDS011;4185;41.506;24.938;2022-08-03T09:12:22;4.90;;;4.53;;
8293;SDS011;4185;41.506;24.938;2022-08-03T09:14:49;5.97;;;5.38;;
8293;SDS011;4185;41.506;24.938;2022-08-03T09:17:16;5.40;;;4.90;;
8293;SDS011;4185;41.506;24.938;2022-08-03T09:19:43;5.65;;;4.72;;
8293;SDS011;4185;41.506;24.938;2022-08-03T09:22:32;4.88;;;4.22;;
8293;SDS011;4185;41.506;24.938;2022-08-03T09:24:59;5.03;;;4.63;;
8293;SDS011;4185;41.506;24.938;2022-08-03T09:27:28;4.72;;;4.32;;
8293;SDS011;4185;41.506;24.938;2022-08-03T09:30:11;7.45;;;5.13;;
8293;SDS011;4185;41.506;24.938;2022-08-03T09:32:39;6.03;;;4.70;;
8293;SDS011;4185;41.506;24.938;2022-08-03T09:35:07;5.05;;;4.65;;
8293;SDS011;4185;41.506;24.938;2022-08-03T09:37:35;5.32;;;4.93;;
8293;SDS011;4185;41.506;24.938;2022-08-03T09:40:02;6.15;;;5.50;;
8293;SDS011;4185;41.506;24.938;2022-08-03T09:42:30;5.50;;;5.10;;
8293;SDS011;4185;41.506;24.938;2022-08-03T09:44:59;6.57;;;5.82;;
8293;SDS011;4185;41.506;24.938;2022-08-03T09:47:26;5.07;;;4.68;;
8293;SDS011;4185;41.506;24.938;2022-08-03T09:49:56;4.95;;;4.35;;
8293;SDS011;4185;41.506;24.938;2022-08-03T09:52:30;6.80;;;4.38;;
8293;SDS011;4185;41.506;24.938;2022-08-03T09:54:58;5.47;;;5.07;;
8293;SDS011;4185;41.506;24.938;2022-08-03T09:57:26;5.57;;;5.18;;
8293;SDS011;4185;41.506;24.938;2022-08-03T10:00:04;5.03;;;4.63;;
8293;SDS011;4185;41.506;24.938;2022-08-03T10:02:34;5.22;;;4.82;;
8293;SDS011;4185;41.506;24.938;2022-08-03T10:05:01;5.50;;;5.10;;
8293;SDS011;4185;41.506;24.938;2022-08-03T10:07:28;6.13;;;5.55;;
8293;SDS011;4185;41.506;24.938;2022-08-03T10:10:07;5.82;;;5.32;;
8293;SDS011;4185;41.506;24.938;2022-08-03T10:12:35;5.90;;;5.30;;
8293;SDS011;4185;41.506;24.938;2022-08-03T10:15:02;5.07;;;4.68;;
8293;SDS011;4185;41.506;24.938;2022-08-03T10:17:29;5.40;;;5.00;;
8293;SDS011;4185;41.506;24.938;2022-08-03T10:19:56;6.03;;;5.55;;
8293;SDS011;4185;41.506;24.938;2022-08-03T10:22:25;5.28;;;4.80;;
8293;SDS011;4185;41.506;24.938;2022-08-03T10:24:57;5.50;;;5.10;;
8293;SDS011;4185;41.506;24.938;2022-08-03T10:27:26;6.25;;;5.65;;
8293;SDS011;4185;41.506;24.938;2022-08-03T10:29:59;8.02;;;5.95;;
8293;SDS011;4185;41.506;24.938;2022-08-03T10:32:29;5.88;;;5.38;;
8293;SDS011;4185;41.506;24.938;2022-08-03T10:34:59;6.25;;;5.53;;
8293;SDS011;4185;41.506;24.938;2022-08-03T10:37:31;6.78;;;6.13;;
8293;SDS011;4185;41.506;24.938;2022-08-03T10:40:01;6.68;;;5.90;;
8293;SDS011;4185;41.506;24.938;2022-08-03T10:42:29;6.97;;;6.35;;
8293;SDS011;4185;41.506;24.938;2022-08-03T10:45:02;7.82;;;6.15;;
8293;SDS011;4185;41.506;24.938;2022-08-03T10:47:31;7.00;;;6.30;;
8293;SDS011;4185;41.506;24.938;2022-08-03T10:49:59;7.20;;;6.50;;
8293;SDS011;4185;41.506;24.938;2022-08-03T10:52:27;6.95;;;5.43;;
8293;SDS011;4185;41.506;24.938;2022-08-03T10:54:54;6.30;;;5.80;;
8293;SDS011;4185;41.506;24.938;2022-08-03T10:57:49;6.18;;;5.68;;
8293;SDS011;4185;41.506;24.938;2022-08-03T11:00:18;6.32;;;5.75;;
8293;SDS011;4185;41.506;24.938;2022-08-03T11:05:33;7.10;;;6.50;;
8293;SDS011;4185;41.506;24.938;2022-08-03T11:10:55;5.90;;;5.50;;
8293;SDS011;4185;41.506;24.938;2022-08-03T11:13:25;6.78;;;6.22;;
8293;SDS011;4185;41.506;24.938;2022-08-03T11:15:56;6.13;;;5.53;;
8293;SDS011;4185;41.506;24.938;2022-08-03T11:18:25;5.88;;;5.45;;
8293;SDS011;4185;41.506;24.938;2022-08-03T11:20:53;6.40;;;5.82;;
8293;SDS011;4185;41.506;24.938;2022-08-03T11:26:10;6.25;;;5.75;;
8293;SDS011;4185;41.506;24.938;2022-08-03T11:28:43;6.40;;;5.80;;
8293;SDS011;4185;41.506;24.938;2022-08-03T11:34:11;5.90;;;5.43;;
8293;SDS011;4185;41.506;24.938;2022-08-03T11:39:44;6.18;;;5.57;;
8293;SDS011;4185;41.506;24.938;2022-08-03T11:45:13;5.80;;;5.30;;
8293;SDS011;4185;41.506;24.938;2022-08-03T11:47:40;5.68;;;5.28;;
8293;SDS011;4185;41.506;24.938;2022-08-03T11:50:08;5.50;;;5.10;;
8293;SDS011;4185;41.506;24.938;2022-08-03T11:52:37;5.95;;;5.35;;
8293;SDS011;4185;41.506;24.938;2022-08-03T11:55:09;5.85;;;5.35;;
8293;SDS011;4185;41.506;24.938;2022-08-03T11:57:37;6.13;;;5.40;;
8293;SDS011;4185;41.506;24.938;2022-08-03T12:00:25;5.80;;;5.30;;
8293;SDS011;4185;41.506;24.938;2022-08-03T12:02:54;6.10;;;5.60;;
8293;SDS011;4185;41.506;24.938;2022-08-03T12:05:38;5.90;;;5.50;;
8293;SDS011;4185;41.506;24.938;2022-08-03T12:08:11;6.43;;;5.90;;
8293;SDS011;4185;41.506;24.938;2022-08-03T12:10:43;6.35;;;5.85;;
8293;SDS011;4185;41.506;24.938;2022-08-03T12:13:12;6.47;;;5.88;;
8293;SDS011;4185;41.506;24.938;2022-08-03T12:15:41;5.90;;;5.40;;
8293;SDS011;4185;41.506;24.938;2022-08-03T12:18:12;5.88;;;5.38;;
8293;SDS011;4185;41.506;24.938;2022-08-03T12:20:41;6.32;;;5.82;;
8293;SDS011;4185;41.506;24.938;2022-08-03T12:23:09;6.35;;;5.80;;
8293;SDS011;4185;41.506;24.938;2022-08-03T12:25:37;5.72;;;5.22;;
8293;SDS011;4185;41.506;24.938;2022-08-03T12:28:06;5.70;;;5.20;;
8293;SDS011;4185;41.506;24.938;2022-08-03T12:30:44;6.30;;;5.80;;
8293;SDS011;4185;41.506;24.938;2022-08-03T12:33:14;5.85;;;5.35;;
8293;SDS011;4185;41.506;24.938;2022-08-03T12:35:46;5.97;;;5.32;;
8293;SDS011;4185;41.506;24.938;2022-08-03T12:38:18;6.80;;;5.40;;
8293;SDS011;4185;41.506;24.938;2022-08-03T12:40:54;6.05;;;5.50;;
8293;SDS011;4185;41.506;24.938;2022-08-03T12:43:21;5.50;;;5.10;;
8293;SDS011;4185;41.506;24.938;2022-08-03T12:45:50;5.38;;;4.97;;
8293;SDS011;4185;41.506;24.938;2022-08-03T12:48:17;5.13;;;4.72;;
8293;SDS011;4185;41.506;24.938;2022-08-03T12:50:43;5.47;;;5.07;;
8293;SDS011;4185;41.506;24.938;2022-08-03T12:53:10;5.05;;;4.65;;
8293;SDS011;4185;41.506;24.938;2022-08-03T12:55:37;5.38;;;4.88;;
8293;SDS011;4185;41.506;24.938;2022-08-03T12:58:05;5.40;;;5.00;;
8293;SDS011;4185;41.506;24.938;2022-08-03T13:00:35;5.10;;;4.70;;
8293;SDS011;4185;41.506;24.938;2022-08-03T13:03:04;5.93;;;5.32;;
8293;SDS011;4185;41.506;24.938;2022-08-03T13:05:41;5.85;;;4.70;;
8293;SDS011;4185;41.506;24.938;2022-08-03T13:08:16;5.60;;;5.10;;
8293;SDS011;4185;41.506;24.938;2022-08-03T13:10:44;5.15;;;4.75;;
8293;SDS011;4185;41.506;24.938;2022-08-03T13:13:11;5.28;;;4.88;;
8293;SDS011;4185;41.506;24.938;2022-08-03T13:15:38;4.88;;;4.50;;
8293;SDS011;4185;41.506;24.938;2022-08-03T13:18:06;4.40;;;4.00;;
8293;SDS011;4185;41.506;24.938;2022-08-03T13:20:33;4.55;;;4.15;;
8293;SDS011;4185;41.506;24.938;2022-08-03T13:23:00;4.35;;;3.95;;
8293;SDS011;4185;41.506;24.938;2022-08-03T13:25:27;4.00;;;3.70;;
8293;SDS011;4185;41.506;24.938;2022-08-03T13:27:54;4.10;;;3.80;;
8293;SDS011;4185;41.506;24.938;2022-08-03T13:30:21;4.38;;;3.97;;
8293;SDS011;4185;41.506;24.938;2022-08-03T13:32:47;4.40;;;4.10;;
8293;SDS011;4185;41.506;24.938;2022-08-03T13:35:16;4.40;;;4.00;;
8293;SDS011;4185;41.506;24.938;2022-08-03T13:37:42;4.43;;;4.03;;
8293;SDS011;4185;41.506;24.938;2022-08-03T13:40:10;4.05;;;3.75;;
8293;SDS011;4185;41.506;24.938;2022-08-03T13:42:37;3.90;;;3.60;;
8293;SDS011;4185;41.506;24.938;2022-08-03T13:45:04;3.97;;;3.67;;
8293;SDS011;4185;41.506;24.938;2022-08-03T13:47:33;4.18;;;3.88;;
8293;SDS011;4185;41.506;24.938;2022-08-03T13:50:00;3.78;;;3.47;;
8293;SDS011;4185;41.506;24.938;2022-08-03T13:52:30;4.30;;;3.90;;
8293;SDS011;4185;41.506;24.938;2022-08-03T13:54:57;3.97;;;3.67;;
8293;SDS011;4185;41.506;24.938;2022-08-03T13:57:25;4.05;;;3.75;;
8293;SDS011;4185;41.506;24.938;2022-08-03T13:59:51;4.07;;;3.78;;
8293;SDS011;4185;41.506;24.938;2022-08-03T14:02:18;4.35;;;4.05;;
8293;SDS011;4185;41.506;24.938;2022-08-03T14:04:45;4.07;;;3.72;;
8293;SDS011;4185;41.506;24.938;2022-08-03T14:07:12;3.88;;;3.47;;
8293;SDS011;4185;41.506;24.938;2022-08-03T14:09:41;3.65;;;3.35;;
8293;SDS011;4185;41.506;24.938;2022-08-03T14:12:07;3.65;;;3.35;;
8293;SDS011;4185;41.506;24.938;2022-08-03T14:14:34;3.40;;;3.10;;
8293;SDS011;4185;41.506;24.938;2022-08-03T14:17:02;3.50;;;3.20;;
8293;SDS011;4185;41.506;24.938;2022-08-03T14:19:28;4.13;;;3.45;;
8293;SDS011;4185;41.506;24.938;2022-08-03T14:21:56;3.50;;;3.20;;
8293;SDS011;4185;41.506;24.938;2022-08-03T14:24:23;3.53;;;3.22;;
8293;SDS011;4185;41.506;24.938;2022-08-03T14:26:51;4.00;;;3.58;;
8293;SDS011;4185;41.506;24.938;2022-08-03T14:29:18;4.03;;;3.55;;
8293;SDS011;4185;41.506;24.938;2022-08-03T14:31:45;3.40;;;3.20;;
8293;SDS011;4185;41.506;24.938;2022-08-03T14:34:11;3.70;;;3.30;;
8293;SDS011;4185;41.506;24.938;2022-08-03T14:36:38;3.53;;;3.22;;
8293;SDS011;4185;41.506;24.938;2022-08-03T14:39:06;3.47;;;3.17;;
8293;SDS011;4185;41.506;24.938;2022-08-03T14:41:33;4.82;;;3.08;;
8293;SDS011;4185;41.506;24.938;2022-08-03T14:44:01;3.63;;;3.33;;
8293;SDS011;4185;41.506;24.938;2022-08-03T14:46:29;3.90;;;3.17;;
8293;SDS011;4185;41.506;24.938;2022-08-03T14:48:56;3.17;;;2.97;;
8293;SDS011;4185;41.506;24.938;2022-08-03T14:51:23;3.20;;;3.00;;
8293;SDS011;4185;41.506;24.938;2022-08-03T14:53:50;3.20;;;3.00;;
8293;SDS011;4185;41.506;24.938;2022-08-03T14:56:16;3.03;;;2.83;;
8293;SDS011;4185;41.506;24.938;2022-08-03T14:58:43;3.33;;;2.70;;
8293;SDS011;4185;41.506;24.938;2022-08-03T15:01:11;3.50;;;3.20;;
8293;SDS011;4185;41.506;24.938;2022-08-03T15:03:38;3.30;;;3.00;;
8293;SDS011;4185;41.506;24.938;2022-08-03T15:06:05;3.45;;;2.65;;
8293;SDS011;4185;41.506;24.938;2022-08-03T15:08:32;3.05;;;2.75;;
8293;SDS011;4185;41.506;24.938;2022-08-03T15:10:59;3.10;;;2.80;;
8293;SDS011;4185;41.506;24.938;2022-08-03T15:13:26;2.85;;;2.65;;
8293;SDS011;4185;41.506;24.938;2022-08-03T15:15:53;3.25;;;3.00;;
8293;SDS011;4185;41.506;24.938;2022-08-03T15:18:23;3.38;;;3.08;;
8293;SDS011;4185;41.506;24.938;2022-08-03T15:20:49;3.03;;;2.72;;
8293;SDS011;4185;41.506;24.938;2022-08-03T15:23:17;5.00;;;3.50;;
8293;SDS011;4185;41.506;24.938;2022-08-03T15:25:44;2.88;;;2.67;;
8293;SDS011;4185;41.506;24.938;2022-08-03T15:28:11;2.95;;;2.75;;